Terminal Aerodrome Forecast
Issued by NWS Cleveland, OH

Home | Current Version | Previous Version | Graphics & Text | Print | Product List | Glossary On
Versions: 1 2 3 4 5 6 7 8 9 10 11 12 13 14 15 16 17 18 19 20
000
FTUS41 KCLE 231100
TAFTOL
TAF
KTOL 231125Z 2312/2412 18010KT 6SM -SHRA OVC035
      TEMPO 2312/2314 4SM -SHRA OVC025
     FM231500 18012KT P6SM OVC035
     FM232100 15010G20KT 4SM -SHRA SCT006 OVC012
     FM240200 12015G25KT 4SM -SHRA BKN006 OVC012
     FM240800 19015G25KT P6SM VCSH BKN012 OVC020=

USA.gov is the U.S. government's official web portal to all federal, state and local government web resources and services.